KAUW

Wausau Downtown Airport

Wausau, Wisconsin, USA
KAUW 171125Z 1712/1812 32007G15KT P6SM BKN250 FM171600 32007KT P6SM SKC FM180000 00000KT P6SM SKC
Issued Valid From Valid To
Dec-17 @ 11:25 UTC
(42 minutes ago)
Dec-17 @ 12:00 UTC
(7 minutes ago)
Dec-18 @ 12:00 UTC
(in 24 hours)
Dec-17 @ 12:00 to Dec-17 @ 16:00
KAUW 171125Z 1712/1812 32007G15KT P6SM BKN250
Wind Visibility Clouds
320° at 7 knots
 Gusting to 15 knots
Greater than 6 miles
  • Broken at 25,000' AGL
From Dec-17 @ 16:00 to Dec-18 @ 00:00
FM171600 32007KT P6SM SKC
Wind Visibility Clouds
320° at 7 knots Greater than 6 miles
  • Clear skies
From Dec-18 @ 00:00 to Dec-18 @ 12:00
FM180000 00000KT P6SM SKC
Visibility Clouds
Greater than 6 miles
  • Clear skies
KAUW 171125Z 1712/1812 32007G15KT P6SM BKN250 FM171600 32007KT P6SM SKC FM180000 00000KT P6SM SKC
Issued Dec-17 @ 11:25 UTC
(42 minutes ago)
Valid From Dec-17 @ 12:00 UTC
(7 minutes ago)
Valid To Dec-18 @ 12:00 UTC
(in 24 hours)
Dec-17 @ 12:00 - Dec-17 @ 16:00
Wind Visibility
320° at 7 knots
 Gusting to 15 knots
Greater than 6 miles
Clouds
  • Broken at 25,000' AGL
From Dec-17 @ 16:00 - Dec-18 @ 00:00
Wind Visibility
320° at 7 knots Greater than 6 miles
Clouds
  • Clear skies
From Dec-18 @ 00:00 - Dec-18 @ 12:00
Clouds
  • Clear skies